Time;durP1;ratioP1;P1;durP2;ratioP2;P2;SDS_P1;SDS_P2;PMS_P1;PMS_P2;Temp;Humidity;BMP_temperature;BMP_pressure;BME280_temperature;BME280_humidity;BME280_pressure;Samples;Min_cycle;Max_cycle;Signal;HPM_P1;HPM_P2
2022/12/15 00:38:46;;;;;;;37.97;10.43;;;6.30;70.70;;;1.13;100.00;94060.75;4941659;28;20042;-56
2022/12/15 00:41:16;;;;;;;48.63;9.98;;;6.30;70.70;;;1.12;100.00;94065.19;4932270;29;20421;-59
2022/12/15 00:43:43;;;;;;;40.78;9.13;;;6.30;70.60;;;1.15;100.00;94061.28;4935242;28;20481;-58
2022/12/15 00:49:02;;;;;;;32.28;8.88;;;6.30;70.50;;;1.11;100.00;94066.25;4941399;28;20029;-59
2022/12/15 01:22:00;;;;;;;23.52;7.82;;;6.30;70.60;;;1.04;100.00;94112.03;4952032;28;20038;-55
2022/12/15 01:24:32;;;;;;;28.27;8.40;;;6.20;70.60;;;1.06;100.00;94110.75;4949751;28;20133;-58
2022/12/15 01:26:58;;;;;;;24.73;8.60;;;6.20;70.60;;;1.08;100.00;94105.28;4933288;29;20034;-59
2022/12/15 01:29:24;;;;;;;28.58;8.27;;;6.20;70.60;;;1.10;100.00;94117.13;4933290;28;20015;-57
2022/12/15 01:31:51;;;;;;;27.00;8.23;;;6.30;70.70;;;1.13;100.00;94115.84;4918267;29;20039;-59
2022/12/15 01:34:21;;;;;;;40.50;8.20;;;6.20;70.60;;;1.05;100.00;94111.78;4933795;29;20058;-59
2022/12/15 01:36:53;;;;;;;31.13;9.05;;;6.20;70.60;;;1.10;100.00;94121.56;4939042;28;20030;-59
2022/12/15 01:39:22;;;;;;;38.80;9.43;;;6.20;70.60;;;1.09;100.00;94107.63;4951184;28;20034;-59
2022/12/15 01:41:47;;;;;;;32.38;9.40;;;6.20;70.60;;;1.08;100.00;94113.94;4949581;28;20026;-58
2022/12/15 01:44:24;;;;;;;35.83;9.52;;;6.30;70.70;;;1.11;100.00;94125.78;4934648;28;20035;-57
2022/12/15 01:46:58;;;;;;;30.58;9.18;;;6.20;70.60;;;1.13;100.00;94132.38;4931826;29;20035;-59
2022/12/15 01:49:29;;;;;;;40.03;10.23;;;6.20;70.60;;;1.13;100.00;94131.59;4938019;28;20078;-59
2022/12/15 01:52:03;;;;;;;36.25;10.30;;;6.30;70.70;;;1.11;100.00;94147.53;4931063;29;20019;-59
2022/12/15 01:54:56;;;;;;;60.13;11.50;;;6.30;71.40;;;1.11;100.00;94139.69;4936549;28;20022;-57
2022/12/15 01:57:35;;;;;;;;;;;6.30;70.70;;;1.09;100.00;94128.63;4950995;28;20015;-58
2022/12/15 02:00:07;;;;;;;73.88;11.15;;;6.20;70.50;;;1.06;100.00;94136.19;4949623;28;19917;-59
2022/12/15 02:02:37;;;;;;;42.75;10.48;;;6.20;70.60;;;1.05;100.00;94121.50;4934523;29;20022;-55
2022/12/15 02:05:06;;;;;;;60.13;13.25;;;6.20;70.60;;;1.00;100.00;94122.19;4934843;29;20041;-59
2022/12/15 02:07:38;;;;;;;80.90;12.88;;;6.10;70.50;;;0.95;100.00;94129.22;4935820;29;20042;-58
2022/12/15 02:10:10;;;;;;;55.92;12.40;;;6.10;70.50;;;0.98;100.00;94128.72;4932945;29;20167;-58
2022/12/15 02:13:30;;;;;;;52.08;12.13;;;6.10;70.50;;;1.00;100.00;94130.06;4933905;28;20015;-59
2022/12/15 02:16:26;;;;;;;43.72;12.30;;;6.10;70.60;;;0.98;100.00;94126.13;4932891;29;20110;-59
2022/12/15 02:19:23;;;;;;;61.75;13.10;;;6.10;70.70;;;0.97;100.00;94114.81;4938972;28;20081;-54
2022/12/15 02:22:52;;;;;;;55.38;12.63;;;6.10;70.80;;;0.88;100.00;94098.72;4937848;29;20038;-55
2022/12/15 02:25:57;;;;;;;54.63;13.52;;;6.10;70.70;;;0.88;100.00;94108.41;4942228;29;20027;-57
2022/12/15 02:29:47;;;;;;;77.20;13.63;;;6.00;70.80;;;0.92;100.00;94133.09;4939645;29;20053;-58
2022/12/15 02:33:00;;;;;;;98.25;13.35;;;6.00;70.80;;;0.93;100.00;94134.69;4929464;29;20527;-52
2022/12/15 02:35:45;;;;;;;39.70;11.57;;;6.00;71.00;;;0.93;100.00;94135.47;4940469;28;20050;-59
2022/12/15 02:38:14;;;;;;;45.40;12.05;;;6.00;71.00;;;0.95;100.00;94135.25;4941538;29;20386;-59
2022/12/15 02:40:41;;;;;;;53.25;12.82;;;6.00;71.00;;;0.99;100.00;94138.97;4946531;29;20038;-59
2022/12/15 02:43:09;;;;;;;42.80;11.85;;;6.00;71.00;;;1.00;100.00;94148.41;4934429;28;20034;-59
2022/12/15 02:46:13;;;;;;;40.05;12.00;;;6.00;71.00;;;1.02;100.00;94137.69;4931127;29;20074;-58
2022/12/15 02:49:30;;;;;;;55.30;12.70;;;6.10;71.00;;;0.97;100.00;94140.22;4938531;28;20014;-56
2022/12/15 02:52:29;;;;;;;53.28;11.88;;;6.10;71.00;;;0.95;100.00;94139.69;4930632;29;20019;-58
2022/12/15 02:55:42;;;;;;;42.53;11.07;;;6.10;70.90;;;1.01;100.00;94155.28;4939207;28;20034;-55
2022/12/15 02:58:38;;;;;;;44.25;11.38;;;6.10;71.00;;;1.02;100.00;94156.84;4949994;29;20191;-55
2022/12/15 03:01:35;;;;;;;42.38;10.68;;;6.10;71.10;;;1.04;100.00;94161.88;4939874;28;20037;-55
2022/12/15 03:04:10;;;;;;;48.20;10.73;;;6.10;71.00;;;1.05;100.00;94164.22;4931285;29;20045;-58
2022/12/15 03:06:38;;;;;;;35.15;9.88;;;6.10;70.90;;;1.04;100.00;94162.66;4933465;28;20030;-55
2022/12/15 03:09:07;;;;;;;44.33;11.45;;;6.20;71.00;;;1.05;100.00;94150.34;4920329;29;20106;-55
2022/12/15 03:11:35;;;;;;;50.17;10.98;;;6.20;70.90;;;1.06;100.00;94160.56;4930805;28;20030;-56
2022/12/15 03:14:02;;;;;;;31.92;8.95;;;6.20;70.80;;;1.06;100.00;94160.56;4953634;28;20027;-55
2022/12/15 03:16:37;;;;;;;53.45;11.35;;;6.30;70.80;;;1.03;100.00;94158.44;4954358;28;20019;-58
2022/12/15 03:19:07;;;;;;;36.33;9.60;;;6.30;70.70;;;1.04;100.00;94157.41;4965724;28;20351;-58
2022/12/15 03:21:33;;;;;;;46.13;11.35;;;6.30;70.70;;;1.05;100.00;94158.19;4937961;28;20030;-54
2022/12/15 03:24:05;;;;;;;54.15;11.35;;;6.30;70.60;;;1.03;100.00;94162.88;4943938;28;20034;-57
2022/12/15 03:26:37;;;;;;;56.92;11.52;;;6.40;70.70;;;1.05;100.00;94158.19;4954529;28;20056;-53
2022/12/15 03:29:06;;;;;;;70.63;11.80;;;6.40;70.60;;;1.06;100.00;94154.53;4969811;28;20549;-58
2022/12/15 03:31:35;;;;;;;187.93;17.33;;;6.30;70.50;;;1.08;100.00;94147.22;4946419;28;20031;-56
2022/12/15 03:34:01;;;;;;;61.63;10.95;;;6.40;70.60;;;1.09;100.00;94146.97;4942198;28;20540;-55
2022/12/15 03:36:27;;;;;;;55.47;11.40;;;6.40;70.60;;;1.09;100.00;94146.19;4937733;28;20039;-57
2022/12/15 03:38:53;;;;;;;80.88;12.05;;;6.30;70.40;;;1.09;100.00;94154.84;4942124;28;20421;-54
2022/12/15 03:41:19;;;;;;;78.10;11.98;;;6.30;70.50;;;1.11;100.00;94165.13;4933856;29;20019;-59
2022/12/15 03:43:47;;;;;;;84.22;11.07;;;6.30;70.60;;;1.11;100.00;94171.16;4949952;28;20458;-55
2022/12/15 03:46:19;;;;;;;70.07;11.75;;;6.30;70.70;;;1.12;100.00;94177.19;4962968;28;20034;-58
2022/12/15 03:48:52;;;;;;;92.95;13.55;;;6.30;70.70;;;1.12;100.00;94172.72;4952453;28;20386;-54
2022/12/15 03:51:21;;;;;;;224.00;17.08;;;6.30;70.70;;;1.12;100.00;94171.94;4953704;28;20069;-55
2022/12/15 03:53:48;;;;;;;318.67;19.23;;;6.30;70.80;;;1.10;100.00;94172.19;4936458;28;20023;-55
2022/12/15 03:56:20;;;;;;;140.18;14.18;;;6.30;70.70;;;1.12;100.00;94166.69;4942379;28;20058;-58
2022/12/15 03:58:49;;;;;;;91.50;12.63;;;6.30;70.70;;;1.05;100.00;94166.84;4965995;28;20093;-58
2022/12/15 04:01:33;;;;;;;139.43;14.05;;;6.30;70.70;;;1.05;100.00;94166.06;4955129;28;20038;-55
2022/12/15 04:04:04;;;;;;;139.68;14.55;;;6.30;70.70;;;1.05;100.00;94166.06;4949531;28;20410;-55
2022/12/15 04:06:31;;;;;;;126.97;14.70;;;6.20;70.60;;;1.04;100.00;94169.72;4961942;28;20022;-59
2022/12/15 04:09:06;;;;;;;145.15;16.73;;;6.20;70.70;;;1.00;100.00;94168.59;4948141;28;20161;-59
2022/12/15 04:11:31;;;;;;;202.80;18.55;;;6.20;70.70;;;0.96;100.00;94164.88;4946321;28;20041;-59
2022/12/15 04:13:57;;;;;;;135.90;16.33;;;6.10;70.60;;;0.90;100.00;94164.78;4934586;28;20034;-58
2022/12/15 04:16:26;;;;;;;111.93;14.90;;;6.10;70.60;;;0.83;100.00;94151.06;4954648;28;20029;-58
2022/12/15 04:21:39;;;;;;;128.85;14.98;;;6.00;70.70;;;0.80;100.00;94158.59;4970629;28;20037;-58
2022/12/15 05:33:34;;;;;;;221.57;19.35;;;6.00;70.80;;;0.80;100.00;94208.41;5008797;28;20082;-57
2022/12/15 05:36:07;;;;;;;200.83;18.00;;;6.00;70.90;;;0.76;100.00;94205.47;5005000;28;20133;-57
2022/12/15 05:38:35;;;;;;;278.77;20.75;;;6.00;70.90;;;0.74;100.00;94210.16;4992867;28;20036;-55
2022/12/15 05:41:13;;;;;;;189.45;18.55;;;5.90;70.90;;;0.68;100.00;94216.31;5008488;28;20488;-56
2022/12/15 05:43:48;;;;;;;249.82;21.30;;;5.90;70.90;;;0.66;100.00;94223.66;5008476;28;20040;-58
2022/12/15 05:46:17;;;;;;;254.32;22.40;;;5.90;71.00;;;0.66;100.00;94223.66;5009111;28;20044;-57
2022/12/15 05:48:49;;;;;;;158.57;19.25;;;5.80;71.00;;;0.65;100.00;94225.44;5007196;28;20112;-58
2022/12/15 05:51:18;;;;;;;103.05;16.88;;;5.80;71.00;;;0.65;100.00;94225.44;5024238;28;20112;-55
2022/12/15 05:53:46;;;;;;;142.40;16.70;;;5.80;71.10;;;0.61;100.00;94215.69;5024688;28;20036;-57
2022/12/15 05:56:14;;;;;;;152.65;19.30;;;5.80;71.20;;;0.59;100.00;94208.06;5006468;28;20053;-56
2022/12/15 05:58:46;;;;;;;161.55;18.33;;;5.70;71.20;;;0.64;100.00;94218.63;5008151;28;20054;-57
2022/12/15 06:01:16;;;;;;;92.03;16.57;;;5.70;71.20;;;0.62;100.00;94212.81;5007854;28;20123;-54
2022/12/15 06:03:45;;;;;;;160.52;18.92;;;5.70;71.30;;;0.63;100.00;94211.81;5009222;28;20025;-57
2022/12/15 06:06:13;;;;;;;75.32;15.65;;;5.70;71.30;;;0.64;100.00;94213.38;5008399;28;20151;-57
2022/12/15 06:08:41;;;;;;;88.25;16.55;;;5.70;71.30;;;0.65;100.00;94212.34;5009498;28;20078;-56
2022/12/15 06:11:13;;;;;;;69.78;15.25;;;5.70;71.40;;;0.63;100.00;94203.16;5024477;28;20025;-56
2022/12/15 06:13:39;;;;;;;74.72;15.45;;;5.70;71.50;;;0.62;100.00;94202.34;5008469;28;20021;-58
2022/12/15 06:16:18;;;;;;;62.22;13.82;;;5.70;71.40;;;0.63;100.00;94197.91;5007930;28;20033;-57
2022/12/15 06:18:55;;;;;;;73.25;14.32;;;5.70;71.50;;;0.62;100.00;94196.31;4987703;28;20032;-55
2022/12/15 06:21:35;;;;;;;89.55;13.65;;;5.70;71.50;;;0.64;100.00;94192.44;5003075;28;20485;-57
2022/12/15 06:24:04;;;;;;;91.72;13.88;;;5.70;71.60;;;0.60;100.00;94191.31;5001880;28;20025;-57
2022/12/15 06:26:38;;;;;;;61.22;12.65;;;5.70;71.60;;;0.60;100.00;94193.94;5004455;28;20053;-57
2022/12/15 06:29:09;;;;;;;38.50;10.65;;;5.70;71.60;;;0.57;100.00;94191.78;5020673;28;20021;-57
2022/12/15 06:31:43;;;;;;;45.92;10.70;;;5.70;71.60;;;0.61;100.00;94197.34;5007134;28;20036;-55
2022/12/15 06:34:16;;;;;;;41.80;10.40;;;5.70;71.70;;;0.62;100.00;94204.16;5008900;28;20029;-55
2022/12/15 06:36:45;;;;;;;71.90;10.80;;;5.70;71.70;;;0.62;100.00;94202.34;5006806;28;20027;-57
2022/12/15 06:39:15;;;;;;;40.70;10.23;;;5.70;71.70;;;0.60;100.00;94209.66;5008057;28;20115;-57
2022/12/15 06:41:44;;;;;;;49.83;10.73;;;5.70;71.70;;;0.62;100.00;94204.97;5024429;28;20025;-56
2022/12/15 06:44:16;;;;;;;38.88;9.85;;;5.70;71.70;;;0.63;100.00;94201.31;5024575;28;20033;-55
2022/12/15 06:46:48;;;;;;;32.90;9.37;;;5.70;71.80;;;0.67;100.00;94205.06;5027315;28;20124;-56
2022/12/15 06:49:14;;;;;;;56.47;11.35;;;5.70;71.80;;;0.66;100.00;94197.44;5027266;28;20036;-56
2022/12/15 06:51:40;;;;;;;39.33;10.93;;;5.70;71.70;;;0.59;100.00;94202.00;5011825;28;20025;-54
2022/12/15 06:54:09;;;;;;;45.00;10.70;;;5.70;71.70;;;0.59;100.00;94200.19;5012264;28;20491;-52
2022/12/15 06:56:39;;;;;;;40.70;10.82;;;5.70;71.60;;;0.58;100.00;94201.22;5027729;28;20032;-55
2022/12/15 06:59:06;;;;;;;43.30;11.20;;;5.70;71.70;;;0.58;100.00;94213.53;5011693;28;20027;-54
2022/12/15 07:01:35;;;;;;;38.88;10.95;;;5.70;71.60;;;0.56;100.00;94216.38;4977304;28;20052;-57
2022/12/15 07:04:04;;;;;;;34.53;10.07;;;5.70;71.60;;;0.59;100.00;94222.97;5028174;28;20025;-54
2022/12/15 07:06:38;;;;;;;35.47;10.32;;;5.60;71.60;;;0.63;100.00;94226.75;5026376;28;20052;-56
2022/12/15 07:09:15;;;;;;;35.95;10.15;;;5.70;71.70;;;0.61;100.00;94216.47;5011664;28;20060;-51
2022/12/15 07:11:49;;;;;;;37.20;9.73;;;5.70;71.70;;;0.60;100.00;94206.25;5026258;28;20391;-54
2022/12/15 07:14:18;;;;;;;35.42;10.15;;;5.70;71.80;;;0.58;100.00;94201.22;5012020;28;20025;-57
2022/12/15 07:16:53;;;;;;;45.75;11.27;;;5.70;71.70;;;0.59;100.00;94197.56;5010679;28;20392;-57
2022/12/15 07:19:25;;;;;;;90.05;13.90;;;5.70;71.80;;;0.60;100.00;94214.91;5010374;28;20043;-56
2022/12/15 07:21:51;;;;;;;45.83;11.48;;;5.70;71.80;;;0.62;100.00;94225.13;5012104;28;20025;-58
2022/12/15 07:24:21;;;;;;;133.32;14.95;;;5.70;71.80;;;0.61;100.00;94234.81;5011750;28;20116;-55
2022/12/15 07:26:49;;;;;;;96.63;13.30;;;5.70;71.90;;;0.64;100.00;94244.06;4997307;28;20550;-53
2022/12/15 07:29:18;;;;;;;91.40;12.73;;;5.70;71.80;;;0.65;100.00;94248.25;5012265;28;20135;-57
2022/12/15 07:31:48;;;;;;;97.03;13.93;;;5.70;71.80;;;0.65;100.00;94249.03;4994037;28;20035;-57
2022/12/15 07:34:17;;;;;;;43.58;11.50;;;5.70;71.80;;;0.66;100.00;94249.88;5012221;28;20104;-55
2022/12/15 07:36:45;;;;;;;45.60;12.27;;;5.80;71.90;;;0.69;100.00;94257.25;5008186;28;20053;-57
2022/12/15 07:39:11;;;;;;;57.25;13.50;;;5.80;71.90;;;0.70;100.00;94261.47;5011926;28;20033;-57
2022/12/15 07:41:39;;;;;;;50.33;12.45;;;5.80;71.90;;;0.69;100.00;94267.75;5012204;28;20096;-53
2022/12/15 07:44:05;;;;;;;251.32;23.13;;;5.80;71.80;;;0.72;100.00;94285.59;5011294;28;20032;-55
2022/12/15 07:46:31;;;;;;;55.85;12.93;;;5.80;71.80;;;0.74;100.00;94282.75;4971366;28;23072;-55
2022/12/15 07:48:59;;;;;;;64.47;13.82;;;5.90;71.80;;;0.73;100.00;94273.31;5019451;28;20124;-56
2022/12/15 07:51:26;;;;;;;108.00;15.25;;;5.90;71.80;;;0.75;100.00;94265.97;5010457;28;20040;-57
2022/12/15 07:53:55;;;;;;;104.63;15.60;;;5.90;71.80;;;0.76;100.00;94257.09;5010542;28;20017;-56
2022/12/15 07:56:23;;;;;;;59.50;13.68;;;5.90;71.80;;;0.77;100.00;94250.81;5008279;28;20032;-53
2022/12/15 07:58:50;;;;;;;63.03;13.90;;;5.90;71.80;;;0.77;100.00;94264.72;4994579;28;20062;-53
2022/12/15 08:01:17;;;;;;;84.07;14.75;;;5.90;71.80;;;0.77;100.00;94259.47;5025831;28;20075;-55
2022/12/15 08:03:46;;;;;;;73.13;13.75;;;5.90;71.70;;;0.78;100.00;94262.88;5010282;28;20025;-53
2022/12/15 08:06:14;;;;;;;86.13;15.13;;;6.00;71.80;;;0.79;100.00;94260.06;5009749;28;20021;-54
2022/12/15 08:08:44;;;;;;;97.43;16.02;;;6.00;71.70;;;0.79;100.00;94267.91;5011624;28;20052;-56
2022/12/15 08:11:15;;;;;;;90.05;15.82;;;6.00;71.60;;;0.79;100.00;94285.47;5010463;28;20032;-56
2022/12/15 08:13:43;;;;;;;93.22;15.75;;;6.00;71.60;;;0.79;100.00;94280.22;5009270;28;20450;-51
2022/12/15 08:16:15;;;;;;;68.10;14.25;;;6.00;71.60;;;0.85;100.00;94281.91;5009782;28;20029;-55
2022/12/15 08:18:41;;;;;;;119.10;15.93;;;6.00;71.60;;;0.89;100.00;94283.03;5009311;28;20041;-54
2022/12/15 08:21:13;;;;;;;81.63;14.45;;;6.10;71.60;;;0.89;100.00;94277.78;5011151;28;20033;-52
2022/12/15 08:23:39;;;;;;;71.05;14.55;;;6.10;71.60;;;0.93;100.00;94284.13;5010540;28;20475;-56
2022/12/15 08:26:14;;;;;;;70.32;15.02;;;6.10;71.60;;;0.95;100.00;94297.03;5010085;28;20033;-58
2022/12/15 08:28:42;;;;;;;85.35;15.48;;;6.20;71.60;;;0.99;100.00;94303.38;4993711;28;20033;-54
2022/12/15 08:31:19;;;;;;;102.35;15.38;;;6.20;71.60;;;0.96;100.00;94302.03;4992108;28;20021;-56
2022/12/15 08:33:49;;;;;;;96.68;15.18;;;6.20;71.60;;;1.02;100.00;94311.56;5010095;28;20075;-57
2022/12/15 08:36:18;;;;;;;85.75;15.40;;;6.20;71.60;;;1.04;100.00;94314.75;5003792;28;20273;-54
2022/12/15 08:38:46;;;;;;;79.65;15.02;;;6.30;71.50;;;1.08;100.00;94304.59;5009485;28;20036;-56
2022/12/15 08:41:22;;;;;;;124.88;16.52;;;6.30;71.50;;;1.01;100.00;94299.50;5009551;28;20047;-57
2022/12/15 08:43:49;;;;;;;100.20;14.95;;;6.30;71.40;;;0.94;100.00;94293.63;4992294;28;20364;-54
2022/12/15 08:46:30;;;;;;;92.18;14.27;;;6.40;71.30;;;0.91;100.00;94289.63;5008113;28;20061;-56
2022/12/15 08:49:09;;;;;;;84.72;14.10;;;6.40;71.20;;;0.87;100.00;94280.63;5006622;28;20025;-56
2022/12/15 08:51:38;;;;;;;128.95;15.63;;;6.40;71.10;;;0.88;100.00;94265.72;5026031;28;20033;-55
2022/12/15 08:54:04;;;;;;;77.60;13.90;;;6.40;71.00;;;0.90;100.00;94268.88;5007841;28;20555;-56
2022/12/15 08:56:29;;;;;;;81.28;13.82;;;6.40;71.00;;;0.90;100.00;94264.44;5007631;28;20035;-56
2022/12/15 08:59:01;;;;;;;107.55;14.18;;;6.50;70.90;;;0.89;100.00;94275.16;5009492;28;20017;-57
2022/12/15 09:01:31;;;;;;;97.72;13.68;;;6.50;70.80;;;0.85;100.00;94274.84;5023674;28;20075;-55
2022/12/15 09:03:58;;;;;;;87.60;14.05;;;6.50;70.80;;;0.88;100.00;94276.19;5009381;28;20029;-52
2022/12/15 09:06:33;;;;;;;89.55;13.32;;;6.50;70.80;;;0.87;100.00;94278.00;4988105;28;20026;-54
2022/12/15 09:09:06;;;;;;;111.45;14.75;;;6.50;70.80;;;0.86;100.00;94265.94;5003616;28;20025;-55
2022/12/15 09:11:33;;;;;;;101.35;14.10;;;6.50;70.70;;;0.89;100.00;94259.44;5009205;28;20414;-57
2022/12/15 09:14:02;;;;;;;82.38;14.65;;;6.50;70.60;;;0.93;100.00;94269.19;5007848;28;20032;-56
2022/12/15 09:16:34;;;;;;;102.28;15.82;;;6.60;70.60;;;0.94;100.00;94277.88;5009924;28;20112;-56
2022/12/15 09:19:07;;;;;;;114.13;16.35;;;6.60;70.60;;;0.98;100.00;94288.69;5009053;28;20488;-57
2022/12/15 09:21:41;;;;;;;;;;;6.60;70.60;;;0.93;100.00;94284.94;5010980;28;20044;-53
2022/12/15 09:24:14;;;;;;;108.30;15.65;;;6.70;70.50;;;1.02;100.00;94293.22;5008451;28;19909;-57
2022/12/15 09:26:46;;;;;;;115.78;17.05;;;6.60;70.60;;;1.01;100.00;94293.47;5008440;28;20052;-55
2022/12/15 09:29:21;;;;;;;83.20;15.30;;;6.70;70.60;;;1.03;100.00;94297.41;4992847;28;20487;-54
2022/12/15 09:31:47;;;;;;;83.78;16.98;;;6.60;70.50;;;1.05;100.00;94297.19;4994685;28;20014;-55
2022/12/15 09:34:15;;;;;;;84.25;16.58;;;6.70;70.50;;;1.06;100.00;94314.50;5025520;28;20044;-52
2022/12/15 09:36:41;;;;;;;82.32;16.02;;;6.60;70.40;;;1.09;100.00;94309.59;5019641;28;20013;-52
2022/12/15 09:39:10;;;;;;;90.18;17.95;;;6.70;70.60;;;1.12;100.00;94301.25;4992062;28;20029;-52
2022/12/15 09:41:52;;;;;;;97.28;17.75;;;6.70;70.50;;;1.12;100.00;94298.63;5009784;28;20032;-49
2022/12/15 09:44:27;;;;;;;80.53;16.80;;;6.70;70.50;;;1.16;100.00;94298.97;5009671;28;20037;-57
2022/12/15 09:47:38;;;;;;;149.40;20.38;;;6.80;70.50;;;1.18;100.00;94294.25;4991639;28;20045;-56
2022/12/15 09:50:13;;;;;;;73.97;15.32;;;6.80;70.40;;;1.13;100.00;94288.94;5021957;28;20033;-55
2022/12/15 09:52:55;;;;;;;90.50;16.00;;;6.80;70.20;;;1.14;100.00;94293.94;5024836;28;20032;-56
2022/12/15 09:55:47;;;;;;;76.88;17.27;;;6.90;70.30;;;1.19;100.00;94287.97;5007525;28;20029;-54
2022/12/15 09:59:24;;;;;;;74.93;17.55;;;6.90;70.20;;;1.25;100.00;94289.66;4991188;28;20060;-55
2022/12/15 10:02:14;;;;;;;68.55;17.23;;;7.00;70.00;;;1.28;100.00;94285.75;4965993;28;20456;-52
2022/12/15 10:05:38;;;;;;;127.85;18.75;;;7.00;70.00;;;1.25;100.00;94287.03;4967031;28;20057;-50
2022/12/15 10:08:08;;;;;;;80.78;17.30;;;7.10;69.90;;;1.18;100.00;94281.16;5023463;28;20029;-52
2022/12/15 10:10:56;;;;;;;89.32;18.75;;;7.10;69.90;;;1.14;100.00;94293.94;5008152;28;20037;-55
2022/12/15 10:14:06;;;;;;;96.47;18.48;;;7.10;69.80;;;1.19;100.00;94303.72;5006765;28;20021;-53
2022/12/15 10:17:13;;;;;;;91.10;18.20;;;7.10;69.60;;;1.18;100.00;94296.09;5007767;28;20033;-54
2022/12/15 10:20:25;;;;;;;81.10;16.88;;;7.00;69.60;;;1.21;100.00;94293.78;5009754;28;20044;-54
2022/12/15 10:22:56;;;;;;;89.93;17.92;;;7.10;69.70;;;1.15;100.00;94303.41;5028580;28;20128;-50
2022/12/15 10:25:30;;;;;;;88.72;19.02;;;7.00;69.70;;;1.16;100.00;94291.09;5010294;28;20025;-53
2022/12/15 10:28:15;;;;;;;92.13;18.90;;;7.10;69.70;;;1.12;100.00;94285.50;5013878;28;20483;-54
2022/12/15 10:31:26;;;;;;;80.90;16.90;;;7.10;69.60;;;1.20;100.00;94275.69;5027082;28;20476;-50
2022/12/15 10:34:28;;;;;;;100.85;17.00;;;7.10;69.60;;;1.16;100.00;94262.25;4998373;28;20028;-53
2022/12/15 10:36:56;;;;;;;128.45;18.25;;;7.20;69.60;;;1.17;100.00;94252.56;5009643;28;20061;-57
2022/12/15 10:39:41;;;;;;;129.00;19.67;;;7.10;69.50;;;1.20;100.00;94241.59;5017755;28;20028;-58
2022/12/15 10:42:26;;;;;;;89.35;17.70;;;7.30;69.50;;;1.17;100.00;94223.69;5008512;28;20057;-53
2022/12/15 10:44:58;;;;;;;92.75;16.77;;;7.20;69.30;;;1.14;100.00;94217.09;5012772;28;20503;-58
2022/12/15 10:47:30;;;;;;;101.03;17.65;;;7.30;69.20;;;1.18;100.00;94205.09;5004644;23;20061;-59
2022/12/15 10:50:24;;;;;;;110.55;18.85;;;7.30;69.10;;;1.15;100.00;94195.06;5002606;28;20132;-55
2022/12/15 10:52:51;;;;;;;116.07;18.80;;;7.40;69.00;;;1.20;100.00;94191.75;4938840;28;20224;-54
2022/12/15 10:55:37;;;;;;;78.95;16.15;;;7.40;69.10;;;1.27;100.00;94200.22;5002255;28;20026;-54
2022/12/15 10:58:24;;;;;;;85.90;16.15;;;7.40;68.90;;;1.14;100.00;94202.16;5004685;28;20032;-55
2022/12/15 11:01:14;;;;;;;91.35;18.42;;;7.40;68.80;;;1.18;100.00;94207.69;5006307;28;20029;-52
2022/12/15 11:03:40;;;;;;;81.20;16.00;;;7.40;68.80;;;1.13;100.00;94223.38;5009652;28;20025;-53
2022/12/15 11:06:20;;;;;;;123.15;18.63;;;7.30;68.70;;;1.07;100.00;94221.72;5001016;28;20048;-56
2022/12/15 11:08:51;;;;;;;113.50;17.77;;;7.30;68.80;;;1.19;100.00;94219.78;5002854;28;20013;-52
2022/12/15 11:14:39;;;;;;;102.32;17.85;;;7.20;69.00;;;1.23;100.00;94207.78;5007928;28;20091;-59
2022/12/15 11:17:08;;;;;;;100.00;17.83;;;7.20;69.20;;;1.11;100.00;94200.00;5006628;28;20047;-50
2022/12/15 11:20:25;;;;;;;100.47;19.15;;;7.20;69.10;;;1.11;100.00;94192.13;5015937;28;20025;-51
2022/12/15 11:23:29;;;;;;;84.05;18.08;;;7.20;69.00;;;1.20;100.00;94187.28;4950279;28;20033;-54
2022/12/15 11:26:13;;;;;;;99.97;18.33;;;7.20;69.10;;;1.15;100.00;94180.13;4995342;28;20029;-52
2022/12/15 11:28:58;;;;;;;94.60;18.13;;;7.20;69.20;;;1.22;100.00;94177.31;5001527;28;20037;-54
2022/12/15 11:31:41;;;;;;;97.85;19.02;;;7.20;69.20;;;1.13;100.00;94171.72;5010543;28;20118;-57
2022/12/15 11:34:36;;;;;;;118.68;18.77;;;7.30;69.20;;;1.17;100.00;94171.22;5002595;28;20468;-55
2022/12/15 11:37:29;;;;;;;87.10;18.73;;;7.30;69.20;;;1.13;100.00;94161.22;5000996;28;20037;-54
2022/12/15 11:40:34;;;;;;;123.47;20.13;;;7.20;69.10;;;1.03;100.00;94158.44;5003759;28;20115;-52
2022/12/15 11:43:40;;;;;;;174.90;20.60;;;7.20;69.20;;;1.04;100.00;94149.53;5003366;28;20021;-55
2022/12/15 11:46:29;;;;;;;100.43;19.23;;;7.10;69.10;;;1.18;100.00;94149.22;5010009;28;20033;-52
2022/12/15 11:49:21;;;;;;;117.05;19.65;;;7.10;69.30;;;1.13;100.00;94155.97;5012140;28;20041;-53
2022/12/15 11:52:28;;;;;;;108.93;20.35;;;7.00;69.40;;;1.08;100.00;94147.22;4996852;28;20441;-55
2022/12/15 11:55:37;;;;;;;131.57;21.00;;;7.00;69.40;;;1.01;100.00;94141.38;4997614;28;20050;-57
2022/12/15 11:59:09;;;;;;;132.13;21.15;;;7.00;69.40;;;1.12;100.00;94130.75;5004643;28;20038;-50
2022/12/15 12:02:10;;;;;;;129.32;21.02;;;6.90;69.40;;;1.13;100.00;94127.13;4997330;28;20037;-54
2022/12/15 12:04:56;;;;;;;123.03;19.85;;;6.90;69.60;;;1.11;100.00;94133.63;5011115;28;20021;-51
2022/12/15 12:07:47;;;;;;;131.20;21.15;;;6.90;69.70;;;1.15;100.00;94127.66;5007652;28;21920;-51
2022/12/15 12:11:07;;;;;;;127.82;20.95;;;6.90;69.70;;;1.19;100.00;94122.72;5005764;28;20036;-55
2022/12/15 12:14:13;;;;;;;114.05;20.00;;;6.90;69.70;;;1.23;100.00;94118.59;4976526;28;20037;-54
2022/12/15 12:17:37;;;;;;;113.47;20.90;;;6.90;69.80;;;1.21;100.00;94112.78;4999143;28;20029;-59
2022/12/15 12:21:03;;;;;;;108.55;21.08;;;6.90;70.00;;;1.18;100.00;94120.34;5000866;28;20045;-54
2022/12/15 12:24:15;;;;;;;106.88;21.15;;;6.90;70.00;;;1.21;100.00;94114.63;4989478;28;20081;-57
2022/12/15 12:26:52;;;;;;;123.10;22.88;;;6.90;70.00;;;1.16;100.00;94110.13;5003112;28;20547;-50
2022/12/15 12:29:33;;;;;;;87.30;20.48;;;6.90;70.00;;;1.11;100.00;94107.41;5001671;28;20025;-53
2022/12/15 12:33:02;;;;;;;106.25;22.00;;;6.90;69.90;;;0.97;100.00;94103.53;5020349;28;20033;-60
2022/12/15 12:35:51;;;;;;;107.18;22.10;;;6.90;69.80;;;1.04;100.00;94096.31;5009172;28;20136;-50
2022/12/15 12:38:32;;;;;;;150.18;25.48;;;6.80;69.80;;;1.09;100.00;94091.13;5005352;28;20025;-51
2022/12/15 12:41:46;;;;;;;133.02;23.35;;;6.80;70.00;;;1.22;100.00;94098.63;5010500;28;20163;-54
2022/12/15 12:44:32;;;;;;;160.05;23.65;;;6.80;70.00;;;1.19;100.00;94093.06;5009935;28;20052;-53
2022/12/15 12:47:26;;;;;;;182.15;25.52;;;6.80;70.10;;;1.16;100.00;94089.13;5009246;28;20435;-49
2022/12/15 12:50:13;;;;;;;120.22;22.70;;;6.80;70.10;;;1.17;100.00;94084.69;5010035;28;20025;-51
2022/12/15 12:53:26;;;;;;;209.63;26.35;;;6.80;70.10;;;1.15;100.00;94079.66;5007646;28;20383;-54
2022/12/15 12:55:59;;;;;;;117.13;23.45;;;6.80;70.10;;;1.21;100.00;94086.56;5005219;28;20467;-51
2022/12/15 12:58:57;;;;;;;117.90;23.60;;;6.80;70.20;;;1.24;100.00;94093.16;5008385;28;20056;-52
2022/12/15 13:01:36;;;;;;;107.32;22.40;;;6.80;70.10;;;1.22;100.00;94096.00;5021676;28;20037;-52
2022/12/15 13:04:32;;;;;;;126.13;23.08;;;6.80;70.20;;;1.17;100.00;94088.09;5009616;28;20017;-51
2022/12/15 13:07:30;;;;;;;131.20;24.88;;;6.80;70.20;;;1.14;100.00;94086.75;5008472;28;20062;-58
2022/12/15 13:10:23;;;;;;;138.45;24.15;;;6.70;70.10;;;1.14;100.00;94081.50;5002104;28;20071;-50
2022/12/15 13:13:30;;;;;;;134.00;24.90;;;6.70;70.10;;;1.07;100.00;94061.72;4996587;28;20033;-50
2022/12/15 13:16:29;;;;;;;155.85;26.30;;;6.60;70.10;;;1.00;100.00;94042.72;4994241;28;20025;-54
2022/12/15 13:19:05;;;;;;;114.95;22.85;;;6.60;70.10;;;0.99;100.00;94039.31;5009079;28;20042;-50
2022/12/15 13:21:40;;;;;;;168.35;25.85;;;6.60;70.30;;;0.97;100.00;94024.88;5010298;28;20434;-49
2022/12/15 13:24:50;;;;;;;114.18;23.15;;;6.60;70.30;;;0.98;100.00;94013.34;5024268;28;20506;-57
2022/12/15 13:27:17;;;;;;;116.00;22.17;;;6.60;70.30;;;0.92;100.00;94012.50;4988809;28;20034;-49